sensor_id;sensor_type;location;lat;lon;timestamp;P1;durP1;ratioP1;P2;durP2;ratioP2
26588;SDS011;14235;48.532;8.722;2022-09-02T00:01:14;6.15;;;4.38;;
26588;SDS011;14235;48.532;8.722;2022-09-02T00:03:40;6.53;;;4.22;;
26588;SDS011;14235;48.532;8.722;2022-09-02T00:06:06;4.70;;;4.30;;
26588;SDS011;14235;48.532;8.722;2022-09-02T00:08:33;4.65;;;4.25;;
26588;SDS011;14235;48.532;8.722;2022-09-02T00:11:00;4.72;;;4.35;;
26588;SDS011;14235;48.532;8.722;2022-09-02T00:13:28;5.40;;;4.45;;
26588;SDS011;14235;48.532;8.722;2022-09-02T00:15:54;5.30;;;4.40;;
26588;SDS011;14235;48.532;8.722;2022-09-02T00:18:20;4.47;;;4.07;;
26588;SDS011;14235;48.532;8.722;2022-09-02T00:20:47;5.00;;;4.70;;
26588;SDS011;14235;48.532;8.722;2022-09-02T00:23:13;5.60;;;4.78;;
26588;SDS011;14235;48.532;8.722;2022-09-02T00:25:40;4.57;;;4.28;;
26588;SDS011;14235;48.532;8.722;2022-09-02T00:28:08;5.00;;;4.35;;
26588;SDS011;14235;48.532;8.722;2022-09-02T00:30:34;4.88;;;4.38;;
26588;SDS011;14235;48.532;8.722;2022-09-02T00:33:01;5.70;;;4.00;;
26588;SDS011;14235;48.532;8.722;2022-09-02T00:35:27;4.93;;;4.32;;
26588;SDS011;14235;48.532;8.722;2022-09-02T00:37:53;5.50;;;4.70;;
26588;SDS011;14235;48.532;8.722;2022-09-02T00:40:19;5.10;;;4.70;;
26588;SDS011;14235;48.532;8.722;2022-09-02T00:42:47;5.22;;;4.30;;
26588;SDS011;14235;48.532;8.722;2022-09-02T00:45:13;5.18;;;4.05;;
26588;SDS011;14235;48.532;8.722;2022-09-02T00:47:39;4.82;;;4.43;;
26588;SDS011;14235;48.532;8.722;2022-09-02T00:50:06;4.57;;;4.20;;
26588;SDS011;14235;48.532;8.722;2022-09-02T00:52:34;4.68;;;4.20;;
26588;SDS011;14235;48.532;8.722;2022-09-02T00:55:06;5.10;;;4.13;;
26588;SDS011;14235;48.532;8.722;2022-09-02T00:57:36;5.03;;;4.32;;
26588;SDS011;14235;48.532;8.722;2022-09-02T01:00:07;4.70;;;4.30;;
26588;SDS011;14235;48.532;8.722;2022-09-02T01:02:34;4.25;;;3.95;;
26588;SDS011;14235;48.532;8.722;2022-09-02T01:05:02;4.50;;;4.20;;
26588;SDS011;14235;48.532;8.722;2022-09-02T01:07:30;5.45;;;4.53;;
26588;SDS011;14235;48.532;8.722;2022-09-02T01:09:58;5.38;;;4.50;;
26588;SDS011;14235;48.532;8.722;2022-09-02T01:12:24;4.53;;;4.13;;
26588;SDS011;14235;48.532;8.722;2022-09-02T01:14:51;5.30;;;4.15;;
26588;SDS011;14235;48.532;8.722;2022-09-02T01:17:17;5.03;;;4.63;;
26588;SDS011;14235;48.532;8.722;2022-09-02T01:19:45;5.38;;;4.40;;
26588;SDS011;14235;48.532;8.722;2022-09-02T01:22:20;5.20;;;4.07;;
26588;SDS011;14235;48.532;8.722;2022-09-02T01:24:47;4.82;;;4.30;;
26588;SDS011;14235;48.532;8.722;2022-09-02T01:27:15;4.80;;;4.40;;
26588;SDS011;14235;48.532;8.722;2022-09-02T01:29:41;4.70;;;4.30;;
26588;SDS011;14235;48.532;8.722;2022-09-02T01:32:07;4.68;;;4.28;;
26588;SDS011;14235;48.532;8.722;2022-09-02T01:34:33;5.45;;;4.93;;
26588;SDS011;14235;48.532;8.722;2022-09-02T01:36:59;5.95;;;5.20;;
26588;SDS011;14235;48.532;8.722;2022-09-02T01:39:25;5.32;;;4.45;;
26588;SDS011;14235;48.532;8.722;2022-09-02T01:41:51;4.32;;;3.92;;
26588;SDS011;14235;48.532;8.722;2022-09-02T01:44:17;6.00;;;4.78;;
26588;SDS011;14235;48.532;8.722;2022-09-02T01:46:43;5.10;;;4.60;;
26588;SDS011;14235;48.532;8.722;2022-09-02T01:49:10;4.97;;;4.57;;
26588;SDS011;14235;48.532;8.722;2022-09-02T01:51:36;5.80;;;4.60;;
26588;SDS011;14235;48.532;8.722;2022-09-02T01:54:02;4.93;;;4.50;;
26588;SDS011;14235;48.532;8.722;2022-09-02T01:56:28;5.18;;;4.68;;
26588;SDS011;14235;48.532;8.722;2022-09-02T01:58:54;5.75;;;5.15;;
26588;SDS011;14235;48.532;8.722;2022-09-02T02:01:20;5.13;;;4.70;;
26588;SDS011;14235;48.532;8.722;2022-09-02T02:03:46;5.13;;;4.72;;
26588;SDS011;14235;48.532;8.722;2022-09-02T02:06:13;5.78;;;5.20;;
26588;SDS011;14235;48.532;8.722;2022-09-02T02:08:40;5.40;;;4.75;;
26588;SDS011;14235;48.532;8.722;2022-09-02T02:11:06;5.13;;;4.63;;
26588;SDS011;14235;48.532;8.722;2022-09-02T02:13:33;4.40;;;4.07;;
26588;SDS011;14235;48.532;8.722;2022-09-02T02:15:59;6.20;;;4.60;;
26588;SDS011;14235;48.532;8.722;2022-09-02T02:18:25;4.28;;;3.97;;
26588;SDS011;14235;48.532;8.722;2022-09-02T02:20:51;4.95;;;4.45;;
26588;SDS011;14235;48.532;8.722;2022-09-02T02:23:17;4.32;;;4.00;;
26588;SDS011;14235;48.532;8.722;2022-09-02T02:25:43;4.93;;;4.13;;
26588;SDS011;14235;48.532;8.722;2022-09-02T02:28:09;5.55;;;4.53;;
26588;SDS011;14235;48.532;8.722;2022-09-02T02:30:35;5.43;;;4.93;;
26588;SDS011;14235;48.532;8.722;2022-09-02T02:33:01;5.65;;;4.70;;
26588;SDS011;14235;48.532;8.722;2022-09-02T02:35:28;5.38;;;4.93;;
26588;SDS011;14235;48.532;8.722;2022-09-02T02:37:53;5.63;;;5.18;;
26588;SDS011;14235;48.532;8.722;2022-09-02T02:40:20;5.70;;;5.18;;
26588;SDS011;14235;48.532;8.722;2022-09-02T02:42:47;5.57;;;5.07;;
26588;SDS011;14235;48.532;8.722;2022-09-02T02:45:14;6.85;;;5.20;;
26588;SDS011;14235;48.532;8.722;2022-09-02T02:47:40;5.50;;;5.00;;
26588;SDS011;14235;48.532;8.722;2022-09-02T02:50:08;5.78;;;5.30;;
26588;SDS011;14235;48.532;8.722;2022-09-02T02:52:34;5.47;;;5.03;;
26588;SDS011;14235;48.532;8.722;2022-09-02T02:55:00;6.18;;;5.45;;
26588;SDS011;14235;48.532;8.722;2022-09-02T02:57:26;6.97;;;5.57;;
26588;SDS011;14235;48.532;8.722;2022-09-02T02:59:53;5.70;;;5.20;;
26588;SDS011;14235;48.532;8.722;2022-09-02T03:02:19;5.95;;;5.45;;
26588;SDS011;14235;48.532;8.722;2022-09-02T03:04:45;6.78;;;5.82;;
26588;SDS011;14235;48.532;8.722;2022-09-02T03:07:11;10.15;;;5.18;;
26588;SDS011;14235;48.532;8.722;2022-09-02T03:09:37;7.40;;;5.80;;
26588;SDS011;14235;48.532;8.722;2022-09-02T03:12:03;6.57;;;5.97;;
26588;SDS011;14235;48.532;8.722;2022-09-02T03:14:29;6.20;;;5.65;;
26588;SDS011;14235;48.532;8.722;2022-09-02T03:16:55;6.13;;;5.55;;
26588;SDS011;14235;48.532;8.722;2022-09-02T03:19:21;6.32;;;5.78;;
26588;SDS011;14235;48.532;8.722;2022-09-02T03:21:47;5.80;;;5.25;;
26588;SDS011;14235;48.532;8.722;2022-09-02T03:24:13;6.07;;;5.50;;
26588;SDS011;14235;48.532;8.722;2022-09-02T03:26:40;5.28;;;4.85;;
26588;SDS011;14235;48.532;8.722;2022-09-02T03:29:06;6.28;;;5.68;;
26588;SDS011;14235;48.532;8.722;2022-09-02T03:31:33;9.40;;;5.45;;
26588;SDS011;14235;48.532;8.722;2022-09-02T03:33:59;6.20;;;5.60;;
26588;SDS011;14235;48.532;8.722;2022-09-02T03:36:26;5.72;;;5.22;;
26588;SDS011;14235;48.532;8.722;2022-09-02T03:38:52;5.78;;;5.28;;
26588;SDS011;14235;48.532;8.722;2022-09-02T03:41:18;5.93;;;5.43;;
26588;SDS011;14235;48.532;8.722;2022-09-02T03:43:44;6.18;;;5.57;;
26588;SDS011;14235;48.532;8.722;2022-09-02T03:46:10;6.07;;;5.50;;
26588;SDS011;14235;48.532;8.722;2022-09-02T03:48:37;6.22;;;5.72;;
26588;SDS011;14235;48.532;8.722;2022-09-02T03:51:04;7.07;;;5.72;;
26588;SDS011;14235;48.532;8.722;2022-09-02T03:53:31;6.28;;;5.43;;
26588;SDS011;14235;48.532;8.722;2022-09-02T03:55:58;5.82;;;5.38;;
26588;SDS011;14235;48.532;8.722;2022-09-02T03:58:28;5.68;;;5.25;;
26588;SDS011;14235;48.532;8.722;2022-09-02T04:00:54;5.80;;;5.30;;
26588;SDS011;14235;48.532;8.722;2022-09-02T04:03:20;5.82;;;5.15;;
26588;SDS011;14235;48.532;8.722;2022-09-02T04:05:47;5.85;;;5.45;;
26588;SDS011;14235;48.532;8.722;2022-09-02T04:08:13;8.63;;;5.18;;
26588;SDS011;14235;48.532;8.722;2022-09-02T04:10:39;5.95;;;5.30;;
26588;SDS011;14235;48.532;8.722;2022-09-02T04:13:05;5.85;;;5.25;;
26588;SDS011;14235;48.532;8.722;2022-09-02T04:15:31;8.80;;;6.03;;
26588;SDS011;14235;48.532;8.722;2022-09-02T04:17:58;6.88;;;5.88;;
26588;SDS011;14235;48.532;8.722;2022-09-02T04:20:24;6.38;;;5.80;;
26588;SDS011;14235;48.532;8.722;2022-09-02T04:22:50;6.00;;;5.50;;
26588;SDS011;14235;48.532;8.722;2022-09-02T04:25:16;6.20;;;5.70;;
26588;SDS011;14235;48.532;8.722;2022-09-02T04:27:42;6.07;;;5.68;;
26588;SDS011;14235;48.532;8.722;2022-09-02T04:30:08;7.15;;;5.68;;
26588;SDS011;14235;48.532;8.722;2022-09-02T04:32:34;8.23;;;5.50;;
26588;SDS011;14235;48.532;8.722;2022-09-02T04:35:01;5.63;;;5.18;;
26588;SDS011;14235;48.532;8.722;2022-09-02T04:37:27;5.45;;;5.05;;
26588;SDS011;14235;48.532;8.722;2022-09-02T04:39:53;5.88;;;5.38;;
26588;SDS011;14235;48.532;8.722;2022-09-02T04:42:19;6.75;;;5.80;;
26588;SDS011;14235;48.532;8.722;2022-09-02T04:44:45;6.20;;;5.60;;
26588;SDS011;14235;48.532;8.722;2022-09-02T04:47:11;8.20;;;5.60;;
26588;SDS011;14235;48.532;8.722;2022-09-02T04:49:37;6.43;;;5.38;;
26588;SDS011;14235;48.532;8.722;2022-09-02T04:52:02;5.95;;;5.35;;
26588;SDS011;14235;48.532;8.722;2022-09-02T04:54:29;6.75;;;5.65;;
26588;SDS011;14235;48.532;8.722;2022-09-02T04:56:54;6.05;;;5.45;;
26588;SDS011;14235;48.532;8.722;2022-09-02T04:59:20;6.38;;;5.70;;
26588;SDS011;14235;48.532;8.722;2022-09-02T05:01:46;7.05;;;5.53;;
26588;SDS011;14235;48.532;8.722;2022-09-02T05:04:14;6.72;;;5.93;;
26588;SDS011;14235;48.532;8.722;2022-09-02T05:06:39;6.57;;;5.40;;
26588;SDS011;14235;48.532;8.722;2022-09-02T05:09:05;5.78;;;5.28;;
26588;SDS011;14235;48.532;8.722;2022-09-02T05:11:32;5.50;;;5.00;;
26588;SDS011;14235;48.532;8.722;2022-09-02T05:14:00;5.25;;;4.85;;
26588;SDS011;14235;48.532;8.722;2022-09-02T05:16:40;6.53;;;5.38;;
26588;SDS011;14235;48.532;8.722;2022-09-02T05:19:07;6.25;;;5.65;;
26588;SDS011;14235;48.532;8.722;2022-09-02T05:21:42;5.35;;;4.85;;
26588;SDS011;14235;48.532;8.722;2022-09-02T05:24:08;5.97;;;4.63;;
26588;SDS011;14235;48.532;8.722;2022-09-02T05:26:34;5.72;;;5.13;;
26588;SDS011;14235;48.532;8.722;2022-09-02T05:29:02;5.20;;;4.68;;
26588;SDS011;14235;48.532;8.722;2022-09-02T05:31:31;6.07;;;4.88;;
26588;SDS011;14235;48.532;8.722;2022-09-02T05:33:57;5.35;;;4.85;;
26588;SDS011;14235;48.532;8.722;2022-09-02T05:36:44;6.53;;;4.78;;
26588;SDS011;14235;48.532;8.722;2022-09-02T05:39:22;5.45;;;5.00;;
26588;SDS011;14235;48.532;8.722;2022-09-02T05:41:53;5.30;;;4.85;;
26588;SDS011;14235;48.532;8.722;2022-09-02T05:44:25;5.45;;;5.00;;
26588;SDS011;14235;48.532;8.722;2022-09-02T05:46:56;5.47;;;4.88;;
26588;SDS011;14235;48.532;8.722;2022-09-02T05:49:38;5.28;;;4.78;;
26588;SDS011;14235;48.532;8.722;2022-09-02T05:52:04;5.10;;;4.72;;
26588;SDS011;14235;48.532;8.722;2022-09-02T05:54:38;5.05;;;4.68;;
26588;SDS011;14235;48.532;8.722;2022-09-02T05:57:36;5.30;;;4.90;;
26588;SDS011;14235;48.532;8.722;2022-09-02T06:00:04;5.32;;;4.72;;
26588;SDS011;14235;48.532;8.722;2022-09-02T06:02:33;5.28;;;4.78;;
26588;SDS011;14235;48.532;8.722;2022-09-02T06:04:59;4.68;;;4.30;;
26588;SDS011;14235;48.532;8.722;2022-09-02T06:07:30;4.72;;;4.43;;
26588;SDS011;14235;48.532;8.722;2022-09-02T06:09:57;7.80;;;5.30;;
26588;SDS011;14235;48.532;8.722;2022-09-02T06:12:26;5.32;;;4.93;;
26588;SDS011;14235;48.532;8.722;2022-09-02T06:14:54;5.57;;;5.18;;
26588;SDS011;14235;48.532;8.722;2022-09-02T06:17:20;5.90;;;5.50;;
26588;SDS011;14235;48.532;8.722;2022-09-02T06:19:46;5.97;;;5.47;;
26588;SDS011;14235;48.532;8.722;2022-09-02T06:22:11;6.75;;;5.15;;
26588;SDS011;14235;48.532;8.722;2022-09-02T06:24:37;5.70;;;5.20;;
26588;SDS011;14235;48.532;8.722;2022-09-02T06:27:03;6.40;;;5.75;;
26588;SDS011;14235;48.532;8.722;2022-09-02T06:29:31;6.22;;;5.72;;
26588;SDS011;14235;48.532;8.722;2022-09-02T06:31:56;6.15;;;5.55;;
26588;SDS011;14235;48.532;8.722;2022-09-02T06:34:23;6.32;;;5.70;;
26588;SDS011;14235;48.532;8.722;2022-09-02T06:36:51;6.35;;;5.85;;
26588;SDS011;14235;48.532;8.722;2022-09-02T06:39:17;6.40;;;5.57;;
26588;SDS011;14235;48.532;8.722;2022-09-02T06:41:45;6.25;;;5.47;;
26588;SDS011;14235;48.532;8.722;2022-09-02T06:44:12;5.10;;;4.70;;
26588;SDS011;14235;48.532;8.722;2022-09-02T06:46:40;5.20;;;4.80;;
26588;SDS011;14235;48.532;8.722;2022-09-02T06:49:08;5.28;;;4.88;;
26588;SDS011;14235;48.532;8.722;2022-09-02T06:51:39;5.05;;;4.75;;
26588;SDS011;14235;48.532;8.722;2022-09-02T06:54:08;5.50;;;5.10;;
26588;SDS011;14235;48.532;8.722;2022-09-02T06:56:37;5.80;;;4.85;;
26588;SDS011;14235;48.532;8.722;2022-09-02T06:59:03;4.60;;;4.30;;
26588;SDS011;14235;48.532;8.722;2022-09-02T07:01:31;5.15;;;4.75;;
26588;SDS011;14235;48.532;8.722;2022-09-02T07:03:57;5.55;;;5.10;;
26588;SDS011;14235;48.532;8.722;2022-09-02T07:06:42;4.35;;;4.05;;
26588;SDS011;14235;48.532;8.722;2022-09-02T07:09:11;4.55;;;4.25;;
26588;SDS011;14235;48.532;8.722;2022-09-02T07:11:39;4.78;;;4.40;;
26588;SDS011;14235;48.532;8.722;2022-09-02T07:14:05;5.15;;;4.40;;
26588;SDS011;14235;48.532;8.722;2022-09-02T07:16:33;6.28;;;4.63;;
26588;SDS011;14235;48.532;8.722;2022-09-02T07:19:02;4.70;;;4.30;;
26588;SDS011;14235;48.532;8.722;2022-09-02T07:21:29;4.72;;;4.43;;
26588;SDS011;14235;48.532;8.722;2022-09-02T07:23:58;5.55;;;4.47;;
26588;SDS011;14235;48.532;8.722;2022-09-02T07:26:25;4.18;;;3.88;;
26588;SDS011;14235;48.532;8.722;2022-09-02T07:28:51;4.40;;;4.10;;
26588;SDS011;14235;48.532;8.722;2022-09-02T07:31:17;3.83;;;3.63;;
26588;SDS011;14235;48.532;8.722;2022-09-02T07:33:44;4.70;;;4.30;;
26588;SDS011;14235;48.532;8.722;2022-09-02T07:36:10;6.13;;;4.85;;
26588;SDS011;14235;48.532;8.722;2022-09-02T07:38:37;5.18;;;4.05;;
26588;SDS011;14235;48.532;8.722;2022-09-02T07:41:04;4.68;;;4.28;;
26588;SDS011;14235;48.532;8.722;2022-09-02T07:43:31;4.85;;;4.53;;
26588;SDS011;14235;48.532;8.722;2022-09-02T07:45:57;4.93;;;4.15;;
26588;SDS011;14235;48.532;8.722;2022-09-02T07:48:25;4.20;;;3.90;;
26588;SDS011;14235;48.532;8.722;2022-09-02T07:50:51;4.25;;;3.95;;
26588;SDS011;14235;48.532;8.722;2022-09-02T07:53:17;4.10;;;3.80;;
26588;SDS011;14235;48.532;8.722;2022-09-02T07:55:44;4.75;;;3.80;;
26588;SDS011;14235;48.532;8.722;2022-09-02T07:58:12;4.43;;;4.03;;
26588;SDS011;14235;48.532;8.722;2022-09-02T08:00:39;4.45;;;3.97;;
26588;SDS011;14235;48.532;8.722;2022-09-02T08:03:05;5.05;;;3.65;;
26588;SDS011;14235;48.532;8.722;2022-09-02T08:05:32;8.43;;;4.30;;
26588;SDS011;14235;48.532;8.722;2022-09-02T08:07:59;8.00;;;3.97;;
26588;SDS011;14235;48.532;8.722;2022-09-02T08:10:26;4.90;;;3.92;;
26588;SDS011;14235;48.532;8.722;2022-09-02T08:12:53;5.10;;;3.95;;
26588;SDS011;14235;48.532;8.722;2022-09-02T08:15:21;3.60;;;3.40;;
26588;SDS011;14235;48.532;8.722;2022-09-02T08:17:47;4.47;;;3.53;;
26588;SDS011;14235;48.532;8.722;2022-09-02T08:20:13;6.35;;;3.50;;
26588;SDS011;14235;48.532;8.722;2022-09-02T08:22:41;3.83;;;3.47;;
26588;SDS011;14235;48.532;8.722;2022-09-02T08:25:07;5.25;;;3.08;;
26588;SDS011;14235;48.532;8.722;2022-09-02T08:27:34;3.38;;;3.17;;
26588;SDS011;14235;48.532;8.722;2022-09-02T08:30:00;2.63;;;2.53;;
26588;SDS011;14235;48.532;8.722;2022-09-02T08:32:28;2.47;;;2.22;;
26588;SDS011;14235;48.532;8.722;2022-09-02T08:34:54;2.30;;;2.10;;
26588;SDS011;14235;48.532;8.722;2022-09-02T08:37:20;2.90;;;2.47;;
26588;SDS011;14235;48.532;8.722;2022-09-02T08:39:46;2.17;;;1.98;;
26588;SDS011;14235;48.532;8.722;2022-09-02T08:42:22;2.60;;;2.40;;
26588;SDS011;14235;48.532;8.722;2022-09-02T08:44:57;2.95;;;1.90;;
26588;SDS011;14235;48.532;8.722;2022-09-02T08:47:29;2.63;;;2.10;;
26588;SDS011;14235;48.532;8.722;2022-09-02T08:49:58;2.38;;;2.15;;
26588;SDS011;14235;48.532;8.722;2022-09-02T08:52:30;2.45;;;2.17;;
26588;SDS011;14235;48.532;8.722;2022-09-02T08:55:02;2.85;;;1.48;;
26588;SDS011;14235;48.532;8.722;2022-09-02T08:57:28;1.60;;;1.50;;
26588;SDS011;14235;48.532;8.722;2022-09-02T08:59:56;1.88;;;1.77;;
26588;SDS011;14235;48.532;8.722;2022-09-02T09:02:38;2.28;;;2.00;;
26588;SDS011;14235;48.532;8.722;2022-09-02T09:05:32;3.85;;;2.08;;
26588;SDS011;14235;48.532;8.722;2022-09-02T09:14:01;2.97;;;2.30;;
26588;SDS011;14235;48.532;8.722;2022-09-02T09:16:40;2.20;;;2.00;;
26588;SDS011;14235;48.532;8.722;2022-09-02T09:22:05;3.05;;;2.10;;
26588;SDS011;14235;48.532;8.722;2022-09-02T09:24:38;2.03;;;1.83;;
26588;SDS011;14235;48.532;8.722;2022-09-02T09:27:08;2.03;;;1.85;;
26588;SDS011;14235;48.532;8.722;2022-09-02T09:29:46;2.33;;;2.10;;
26588;SDS011;14235;48.532;8.722;2022-09-02T09:32:20;2.38;;;2.15;;
26588;SDS011;14235;48.532;8.722;2022-09-02T09:45:33;3.97;;;2.13;;
26588;SDS011;14235;48.532;8.722;2022-09-02T09:50:44;1.77;;;1.67;;
26588;SDS011;14235;48.532;8.722;2022-09-02T09:55:52;2.40;;;2.20;;
26588;SDS011;14235;48.532;8.722;2022-09-02T09:58:28;2.20;;;2.00;;
26588;SDS011;14235;48.532;8.722;2022-09-02T10:01:09;3.00;;;1.95;;
26588;SDS011;14235;48.532;8.722;2022-09-02T10:08:58;1.98;;;1.88;;
26588;SDS011;14235;48.532;8.722;2022-09-02T10:11:30;4.65;;;2.05;;
26588;SDS011;14235;48.532;8.722;2022-09-02T10:13:58;2.45;;;2.10;;
26588;SDS011;14235;48.532;8.722;2022-09-02T10:30:16;2.47;;;2.00;;
26588;SDS011;14235;48.532;8.722;2022-09-02T10:35:50;1.85;;;1.75;;
26588;SDS011;14235;48.532;8.722;2022-09-02T10:38:38;2.45;;;1.60;;
26588;SDS011;14235;48.532;8.722;2022-09-02T10:46:42;1.83;;;1.73;;
26588;SDS011;14235;48.532;8.722;2022-09-02T10:55:36;2.05;;;1.90;;
26588;SDS011;14235;48.532;8.722;2022-09-02T10:57:50;1.95;;;1.85;;
26588;SDS011;14235;48.532;8.722;2022-09-02T11:00:25;1.98;;;1.88;;
26588;SDS011;14235;48.532;8.722;2022-09-02T11:05:32;3.00;;;2.10;;
26588;SDS011;14235;48.532;8.722;2022-09-02T11:08:06;1.80;;;1.70;;
26588;SDS011;14235;48.532;8.722;2022-09-02T11:10:37;1.65;;;1.55;;
26588;SDS011;14235;48.532;8.722;2022-09-02T11:13:19;2.03;;;1.70;;
26588;SDS011;14235;48.532;8.722;2022-09-02T11:16:14;2.13;;;1.70;;
26588;SDS011;14235;48.532;8.722;2022-09-02T11:18:50;1.77;;;1.67;;
26588;SDS011;14235;48.532;8.722;2022-09-02T11:21:28;2.60;;;1.60;;
26588;SDS011;14235;48.532;8.722;2022-09-02T11:24:16;1.67;;;1.58;;
26588;SDS011;14235;48.532;8.722;2022-09-02T11:26:52;2.30;;;1.60;;
26588;SDS011;14235;48.532;8.722;2022-09-02T11:32:14;1.40;;;1.30;;
26588;SDS011;14235;48.532;8.722;2022-09-02T11:34:51;2.63;;;1.60;;
26588;SDS011;14235;48.532;8.722;2022-09-02T11:37:37;2.15;;;1.65;;
26588;SDS011;14235;48.532;8.722;2022-09-02T11:40:09;1.80;;;1.70;;
26588;SDS011;14235;48.532;8.722;2022-09-02T11:45:25;1.42;;;1.23;;
26588;SDS011;14235;48.532;8.722;2022-09-02T11:51:17;1.50;;;1.40;;
26588;SDS011;14235;48.532;8.722;2022-09-02T11:54:04;1.73;;;1.63;;
26588;SDS011;14235;48.532;8.722;2022-09-02T11:56:35;1.63;;;1.40;;
26588;SDS011;14235;48.532;8.722;2022-09-02T11:59:04;1.63;;;1.50;;
26588;SDS011;14235;48.532;8.722;2022-09-02T12:06:35;1.45;;;1.45;;
26588;SDS011;14235;48.532;8.722;2022-09-02T12:09:02;1.60;;;1.50;;
26588;SDS011;14235;48.532;8.722;2022-09-02T12:14:04;1.30;;;1.30;;
26588;SDS011;14235;48.532;8.722;2022-09-02T12:16:34;1.60;;;1.50;;
26588;SDS011;14235;48.532;8.722;2022-09-02T12:21:31;2.35;;;1.50;;
26588;SDS011;14235;48.532;8.722;2022-09-02T12:34:59;1.75;;;1.60;;
26588;SDS011;14235;48.532;8.722;2022-09-02T12:37:15;1.80;;;1.70;;
26588;SDS011;14235;48.532;8.722;2022-09-02T12:40:28;1.65;;;1.50;;
26588;SDS011;14235;48.532;8.722;2022-09-02T12:42:57;1.50;;;1.50;;
26588;SDS011;14235;48.532;8.722;2022-09-02T12:45:26;1.83;;;1.48;;
26588;SDS011;14235;48.532;8.722;2022-09-02T12:55:56;3.20;;;1.67;;
26588;SDS011;14235;48.532;8.722;2022-09-02T12:58:37;2.85;;;1.55;;
26588;SDS011;14235;48.532;8.722;2022-09-02T13:06:52;1.70;;;1.58;;
26588;SDS011;14235;48.532;8.722;2022-09-02T13:15:34;1.60;;;1.50;;
26588;SDS011;14235;48.532;8.722;2022-09-02T13:18:22;1.48;;;1.38;;
26588;SDS011;14235;48.532;8.722;2022-09-02T13:26:13;1.55;;;1.45;;
26588;SDS011;14235;48.532;8.722;2022-09-02T13:29:09;1.50;;;1.40;;
26588;SDS011;14235;48.532;8.722;2022-09-02T13:34:39;1.80;;;1.50;;
26588;SDS011;14235;48.532;8.722;2022-09-02T13:37:14;1.50;;;1.50;;
26588;SDS011;14235;48.532;8.722;2022-09-02T13:40:50;1.40;;;1.40;;
26588;SDS011;14235;48.532;8.722;2022-09-02T13:42:58;1.58;;;1.52;;
26588;SDS011;14235;48.532;8.722;2022-09-02T13:45:29;1.60;;;1.50;;
26588;SDS011;14235;48.532;8.722;2022-09-02T13:47:59;2.20;;;1.45;;
26588;SDS011;14235;48.532;8.722;2022-09-02T13:50:30;1.48;;;1.38;;
26588;SDS011;14235;48.532;8.722;2022-09-02T13:52:57;1.40;;;1.40;;
26588;SDS011;14235;48.532;8.722;2022-09-02T13:55:25;1.52;;;1.33;;
26588;SDS011;14235;48.532;8.722;2022-09-02T14:00:27;2.20;;;1.60;;
26588;SDS011;14235;48.532;8.722;2022-09-02T14:03:00;1.40;;;1.40;;
26588;SDS011;14235;48.532;8.722;2022-09-02T14:05:31;1.58;;;1.48;;
26588;SDS011;14235;48.532;8.722;2022-09-02T14:08:00;1.70;;;1.60;;
26588;SDS011;14235;48.532;8.722;2022-09-02T14:10:29;1.42;;;1.42;;
26588;SDS011;14235;48.532;8.722;2022-09-02T14:12:57;2.53;;;1.63;;
26588;SDS011;14235;48.532;8.722;2022-09-02T14:15:27;2.53;;;1.50;;
26588;SDS011;14235;48.532;8.722;2022-09-02T14:20:34;1.58;;;1.48;;
26588;SDS011;14235;48.532;8.722;2022-09-02T14:23:02;1.55;;;1.52;;
26588;SDS011;14235;48.532;8.722;2022-09-02T14:25:39;1.58;;;1.48;;
26588;SDS011;14235;48.532;8.722;2022-09-02T14:28:19;2.67;;;1.58;;
26588;SDS011;14235;48.532;8.722;2022-09-02T14:30:53;1.70;;;1.60;;
26588;SDS011;14235;48.532;8.722;2022-09-02T14:41:11;2.67;;;1.80;;
26588;SDS011;14235;48.532;8.722;2022-09-02T14:43:45;1.50;;;1.40;;
26588;SDS011;14235;48.532;8.722;2022-09-02T14:46:30;2.25;;;1.60;;
26588;SDS011;14235;48.532;8.722;2022-09-02T14:49:19;1.77;;;1.50;;
26588;SDS011;14235;48.532;8.722;2022-09-02T14:51:51;1.73;;;1.55;;
26588;SDS011;14235;48.532;8.722;2022-09-02T14:57:03;1.42;;;1.42;;
26588;SDS011;14235;48.532;8.722;2022-09-02T14:59:30;1.80;;;1.70;;
26588;SDS011;14235;48.532;8.722;2022-09-02T15:01:55;2.25;;;1.70;;
26588;SDS011;14235;48.532;8.722;2022-09-02T15:04:22;1.83;;;1.48;;
26588;SDS011;14235;48.532;8.722;2022-09-02T15:06:48;1.48;;;1.40;;
26588;SDS011;14235;48.532;8.722;2022-09-02T15:09:15;1.73;;;1.63;;
26588;SDS011;14235;48.532;8.722;2022-09-02T15:11:42;5.25;;;1.63;;
26588;SDS011;14235;48.532;8.722;2022-09-02T15:14:10;2.60;;;1.75;;
26588;SDS011;14235;48.532;8.722;2022-09-02T15:16:37;1.70;;;1.60;;
26588;SDS011;14235;48.532;8.722;2022-09-02T15:19:03;1.73;;;1.63;;
26588;SDS011;14235;48.532;8.722;2022-09-02T15:21:29;4.05;;;2.13;;
26588;SDS011;14235;48.532;8.722;2022-09-02T15:23:55;3.80;;;1.92;;
26588;SDS011;14235;48.532;8.722;2022-09-02T15:26:20;3.35;;;2.10;;
26588;SDS011;14235;48.532;8.722;2022-09-02T15:28:46;2.20;;;2.00;;
26588;SDS011;14235;48.532;8.722;2022-09-02T15:31:12;1.90;;;1.80;;
26588;SDS011;14235;48.532;8.722;2022-09-02T15:33:38;4.22;;;2.30;;
26588;SDS011;14235;48.532;8.722;2022-09-02T15:36:06;3.65;;;1.70;;
26588;SDS011;14235;48.532;8.722;2022-09-02T15:38:33;2.40;;;1.48;;
26588;SDS011;14235;48.532;8.722;2022-09-02T15:41:10;2.45;;;1.80;;
26588;SDS011;14235;48.532;8.722;2022-09-02T15:43:41;2.58;;;1.73;;
26588;SDS011;14235;48.532;8.722;2022-09-02T15:46:23;1.83;;;1.73;;
26588;SDS011;14235;48.532;8.722;2022-09-02T15:48:51;2.20;;;2.00;;
26588;SDS011;14235;48.532;8.722;2022-09-02T15:51:18;4.18;;;1.83;;
26588;SDS011;14235;48.532;8.722;2022-09-02T15:53:45;1.80;;;1.70;;
26588;SDS011;14235;48.532;8.722;2022-09-02T15:56:17;1.70;;;1.60;;
26588;SDS011;14235;48.532;8.722;2022-09-02T15:58:43;1.98;;;1.60;;
26588;SDS011;14235;48.532;8.722;2022-09-02T16:01:09;10.18;;;2.28;;
26588;SDS011;14235;48.532;8.722;2022-09-02T16:03:35;1.80;;;1.70;;
26588;SDS011;14235;48.532;8.722;2022-09-02T16:06:01;1.90;;;1.80;;
26588;SDS011;14235;48.532;8.722;2022-09-02T16:08:27;1.85;;;1.70;;
26588;SDS011;14235;48.532;8.722;2022-09-02T16:10:53;3.65;;;1.77;;
26588;SDS011;14235;48.532;8.722;2022-09-02T16:13:18;2.00;;;1.85;;
26588;SDS011;14235;48.532;8.722;2022-09-02T16:15:45;3.33;;;1.85;;
26588;SDS011;14235;48.532;8.722;2022-09-02T16:18:11;1.80;;;1.70;;
26588;SDS011;14235;48.532;8.722;2022-09-02T16:20:37;2.78;;;2.00;;
26588;SDS011;14235;48.532;8.722;2022-09-02T16:23:03;1.83;;;1.60;;
26588;SDS011;14235;48.532;8.722;2022-09-02T16:25:28;4.82;;;1.80;;
26588;SDS011;14235;48.532;8.722;2022-09-02T16:27:54;1.77;;;1.67;;
26588;SDS011;14235;48.532;8.722;2022-09-02T16:30:20;1.80;;;1.70;;
26588;SDS011;14235;48.532;8.722;2022-09-02T16:32:46;1.83;;;1.73;;
26588;SDS011;14235;48.532;8.722;2022-09-02T16:35:14;2.05;;;1.95;;
26588;SDS011;14235;48.532;8.722;2022-09-02T16:37:40;2.22;;;2.03;;
26588;SDS011;14235;48.532;8.722;2022-09-02T16:40:06;2.05;;;1.85;;
26588;SDS011;14235;48.532;8.722;2022-09-02T16:42:32;3.28;;;1.60;;
26588;SDS011;14235;48.532;8.722;2022-09-02T16:44:58;3.25;;;2.20;;
26588;SDS011;14235;48.532;8.722;2022-09-02T16:47:24;1.90;;;1.80;;
26588;SDS011;14235;48.532;8.722;2022-09-02T16:49:50;2.15;;;1.80;;
26588;SDS011;14235;48.532;8.722;2022-09-02T16:52:16;5.15;;;1.92;;
26588;SDS011;14235;48.532;8.722;2022-09-02T16:54:41;1.77;;;1.67;;
26588;SDS011;14235;48.532;8.722;2022-09-02T16:57:07;3.20;;;2.00;;
26588;SDS011;14235;48.532;8.722;2022-09-02T16:59:33;4.72;;;2.38;;
26588;SDS011;14235;48.532;8.722;2022-09-02T17:01:59;1.77;;;1.67;;
26588;SDS011;14235;48.532;8.722;2022-09-02T17:04:24;4.47;;;2.00;;
26588;SDS011;14235;48.532;8.722;2022-09-02T17:06:50;1.85;;;1.60;;
26588;SDS011;14235;48.532;8.722;2022-09-02T17:09:18;2.13;;;1.80;;
26588;SDS011;14235;48.532;8.722;2022-09-02T17:11:46;1.80;;;1.70;;
26588;SDS011;14235;48.532;8.722;2022-09-02T17:14:12;1.67;;;1.58;;